Time;durP1;ratioP1;P1;durP2;ratioP2;P2;SDS_P1;SDS_P2;PMS_P1;PMS_P2;Temp;Humidity;BMP_temperature;BMP_pressure;BME280_temperature;BME280_humidity;BME280_pressure;Samples;Min_cycle;Max_cycle;Signal;HPM_P1;HPM_P2
2022/04/13 00:00:09;;;;;;;10.75;2.75;;;;;;;16.00;68.11;99995.69;5052185;28;20116;-84
2022/04/13 00:02:34;;;;;;;13.85;3.60;;;;;;;16.04;67.79;99995.22;5053578;28;20104;-83
2022/04/13 00:05:00;;;;;;;11.07;2.80;;;;;;;16.06;67.92;99990.63;5053280;28;20112;-84
2022/04/13 00:07:25;;;;;;;8.32;2.63;;;;;;;16.06;67.82;99997.72;5053639;28;20021;-84
2022/04/13 00:09:50;;;;;;;10.15;3.05;;;;;;;16.00;67.97;100003.63;5053398;28;20043;-84
2022/04/13 00:12:16;;;;;;;8.82;3.05;;;;;;;15.95;68.38;100001.41;5053217;28;20033;-84
2022/04/13 00:14:41;;;;;;;13.70;3.50;;;;;;;15.89;68.28;100017.06;5053276;28;20083;-84
2022/04/13 00:17:07;;;;;;;13.18;3.70;;;;;;;15.88;68.61;100012.75;5051931;28;20070;-84
2022/04/13 00:19:33;;;;;;;13.95;3.47;;;;;;;15.92;68.54;100019.44;5053157;28;20036;-84
2022/04/13 00:21:58;;;;;;;11.40;3.95;;;;;;;15.85;68.82;100020.00;5053293;28;20028;-84
2022/04/13 00:24:23;;;;;;;12.77;3.63;;;;;;;15.86;68.85;100015.56;5053102;28;20025;-84
2022/04/13 00:26:49;;;;;;;11.55;2.97;;;;;;;15.93;68.25;100021.09;5053047;28;20029;-84
2022/04/13 00:29:14;;;;;;;12.65;3.60;;;;;;;15.88;68.38;100018.88;5052984;28;20107;-84
2022/04/13 00:31:40;;;;;;;10.98;3.45;;;;;;;15.87;68.38;100011.91;5052752;28;20428;-83
2022/04/13 00:34:05;;;;;;;16.15;4.25;;;;;;;15.83;68.38;100023.78;5052826;28;20031;-83
2022/04/13 00:36:31;;;;;;;16.60;5.13;;;;;;;15.84;68.48;100022.81;5053336;28;20025;-83
2022/04/13 00:38:56;;;;;;;13.15;4.22;;;;;;;15.76;68.51;100025.38;5053006;28;20510;-83
2022/04/13 00:41:22;;;;;;;10.93;3.42;;;;;;;15.83;68.58;100021.97;5051499;28;20112;-83
2022/04/13 00:44:04;;;;;;;14.38;4.35;;;;;;;15.83;68.62;100032.56;5052676;28;20271;-83
2022/04/13 00:46:30;;;;;;;14.05;4.05;;;;;;;15.75;68.69;100027.16;5052613;28;20028;-83
2022/04/13 00:48:56;;;;;;;14.38;4.53;;;;;;;15.80;68.68;100029.38;5051628;28;20150;-84
2022/04/13 00:51:21;;;;;;;13.65;3.60;;;;;;;15.85;68.50;100025.28;5052264;28;20123;-84
2022/04/13 00:53:49;;;;;;;16.40;5.38;;;;;;;15.91;68.15;100023.88;5052594;28;20025;-84
2022/04/13 00:56:16;;;;;;;9.85;3.38;;;;;;;15.92;68.07;100027.38;5052575;28;20135;-84
2022/04/13 00:58:43;;;;;;;12.75;4.60;;;;;;;15.82;68.57;100022.13;5051305;28;20411;-84
2022/04/13 01:01:08;;;;;;;17.25;5.75;;;;;;;15.80;68.40;100016.16;5051225;28;20021;-84
2022/04/13 01:03:36;;;;;;;13.00;4.47;;;;;;;15.88;68.08;100015.38;5052356;28;20044;-84
2022/04/13 01:06:03;;;;;;;12.25;4.50;;;;;;;15.79;68.13;100007.34;5052631;28;20029;-84
2022/04/13 01:08:31;;;;;;;11.85;4.72;;;;;;;15.70;68.68;100015.31;5052397;28;20048;-84
2022/04/13 01:10:58;;;;;;;15.00;4.97;;;;;;;15.67;68.50;100006.69;5052220;28;20479;-84
2022/04/13 01:13:23;;;;;;;14.75;6.13;;;;;;;15.64;68.52;100011.47;5050923;28;20079;-84
2022/04/13 01:15:49;;;;;;;16.63;5.57;;;;;;;15.40;68.86;100012.81;5052142;28;20055;-84
2022/04/13 01:18:18;;;;;;;11.48;5.18;;;;;;;15.41;69.35;100011.81;5052231;28;20025;-84
2022/04/13 01:20:54;;;;;;;10.55;4.90;;;;;;;15.52;68.78;100015.25;5052015;28;20070;-83
2022/04/13 01:23:24;;;;;;;14.40;5.20;;;;;;;15.55;68.53;100022.91;5052109;28;20061;-84
2022/04/13 01:25:54;;;;;;;11.50;5.10;;;;;;;15.50;68.57;100023.38;5052158;28;20033;-84
2022/04/13 01:28:20;;;;;;;16.55;5.78;;;;;;;15.44;68.51;100010.69;5051994;28;20120;-84
2022/04/13 01:30:46;;;;;;;15.98;5.57;;;;;;;15.40;68.67;100015.47;5051551;28;20052;-83
2022/04/13 01:33:12;;;;;;;12.95;4.85;;;;;;;15.43;68.45;100020.44;5050958;28;20021;-83
2022/04/13 01:35:38;;;;;;;14.35;5.28;;;;;;;15.40;68.72;100020.75;5052003;28;20597;-84
2022/04/13 01:38:04;;;;;;;14.40;5.82;;;;;;;15.32;69.21;100023.25;5052017;28;20522;-84
2022/04/13 01:40:30;;;;;;;13.23;5.95;;;;;;;15.21;69.77;100023.47;5051845;28;20028;-84
2022/04/13 01:42:55;;;;;;;17.10;6.05;;;;;;;15.23;69.80;100024.16;5051602;28;20039;-84
2022/04/13 01:45:21;;;;;;;20.27;6.82;;;;;;;15.32;69.35;100025.06;5051703;28;20115;-84
2022/04/13 01:47:48;;;;;;;13.35;5.68;;;;;;;15.35;69.38;100020.34;5050447;28;20055;-84
2022/04/13 01:50:14;;;;;;;12.93;5.93;;;;;;;15.39;69.49;100031.47;5051571;28;20021;-84
2022/04/13 01:52:40;;;;;;;13.50;6.38;;;;;;;15.36;69.24;100029.94;5051750;28;20048;-84
2022/04/13 01:55:06;;;;;;;14.57;6.00;;;;;;;15.38;69.27;100041.22;5051701;28;20029;-84
2022/04/13 01:57:31;;;;;;;14.73;6.25;;;;;;;15.32;69.44;100035.66;5051953;28;20445;-84
2022/04/13 01:59:57;;;;;;;13.05;6.10;;;;;;;15.23;69.66;100043.47;5054322;28;20036;-84
2022/04/13 02:02:22;;;;;;;10.05;5.15;;;;;;;15.35;69.26;100041.50;5055770;28;20031;-84
2022/04/13 02:04:50;;;;;;;13.00;5.78;;;;;;;15.33;69.24;100038.16;5055687;28;20106;-84
2022/04/13 02:07:15;;;;;;;13.70;5.57;;;;;;;15.32;69.25;100043.59;5055735;28;20029;-84
2022/04/13 02:09:41;;;;;;;12.95;5.55;;;;;;;15.35;69.18;100044.16;5055539;28;20450;-83
2022/04/13 02:12:07;;;;;;;13.45;4.85;;;;;;;15.33;69.14;100045.28;5055588;28;20032;-84
2022/04/13 02:14:32;;;;;;;14.82;5.63;;;;;;;15.13;69.88;100053.25;5055706;28;20029;-84
2022/04/13 02:16:57;;;;;;;19.40;5.93;;;;;;;15.22;69.28;100055.03;5054277;28;20048;-84
2022/04/13 02:19:23;;;;;;;18.35;6.95;;;;;;;15.21;69.16;100049.91;5055538;28;20036;-84
2022/04/13 02:21:48;;;;;;;13.75;6.53;;;;;;;15.23;69.34;100063.81;5055677;28;20082;-84
2022/04/13 02:24:14;;;;;;;15.20;5.18;;;;;;;15.25;69.53;100064.50;5055866;28;20067;-83
2022/04/13 02:26:39;;;;;;;12.30;5.70;;;;;;;15.30;69.73;100072.81;5055757;28;20075;-84
2022/04/13 02:29:05;;;;;;;14.00;6.28;;;;;;;15.31;69.33;100063.94;5055466;28;20451;-83
2022/04/13 02:31:30;;;;;;;11.07;5.07;;;;;;;15.37;69.74;100071.28;5055188;28;20383;-84
2022/04/13 02:33:56;;;;;;;15.55;6.00;;;;;;;15.38;69.62;100070.31;5055238;28;20035;-84
2022/04/13 02:36:22;;;;;;;14.93;5.70;;;;;;;15.36;69.82;100076.72;5055002;28;20099;-84
2022/04/13 02:38:47;;;;;;;11.65;5.60;;;;;;;15.46;69.52;100073.09;5054961;28;20021;-84
2022/04/13 02:41:12;;;;;;;12.35;5.78;;;;;;;15.36;70.17;100068.78;5054957;28;20104;-83
2022/04/13 02:43:39;;;;;;;13.02;4.70;;;;;;;15.42;70.20;100071.72;5055052;28;20021;-84
2022/04/13 02:46:04;;;;;;;9.75;4.53;;;;;;;15.46;70.19;100077.53;5055128;28;20021;-83
2022/04/13 02:48:29;;;;;;;13.73;5.28;;;;;;;15.49;70.04;100079.06;5054869;28;20067;-83
2022/04/13 02:50:56;;;;;;;12.38;4.57;;;;;;;15.53;70.04;100080.44;5054728;28;20083;-83
2022/04/13 02:53:23;;;;;;;9.50;5.10;;;;;;;15.56;70.04;100082.78;5054860;28;20070;-84
2022/04/13 02:55:50;;;;;;;8.25;4.60;;;;;;;15.58;69.93;100081.69;5054783;28;20502;-84
2022/04/13 02:58:15;;;;;;;12.63;4.28;;;;;;;15.63;69.67;100078.59;5054713;28;20036;-84
2022/04/13 03:00:41;;;;;;;12.25;4.45;;;;;;;15.63;69.91;100084.72;5054452;28;20021;-84
2022/04/13 03:03:06;;;;;;;15.07;4.90;;;;;;;15.67;69.66;100077.31;5054866;28;20024;-83
2022/04/13 03:05:31;;;;;;;16.85;5.15;;;;;;;15.71;69.71;100088.47;5054974;28;20035;-83
2022/04/13 03:07:57;;;;;;;15.70;6.50;;;;;;;15.72;69.69;100090.09;5053256;28;20536;-83
2022/04/13 03:10:22;;;;;;;13.38;4.93;;;;;;;15.73;69.08;100075.94;5053165;28;20024;-83
2022/04/13 03:12:48;;;;;;;13.93;5.18;;;;;;;15.76;69.40;100067.72;5053121;28;20032;-83
2022/04/13 03:15:14;;;;;;;12.25;4.45;;;;;;;15.73;69.17;100074.13;5054397;28;20021;-83
2022/04/13 03:17:39;;;;;;;6.68;4.22;;;;;;;15.79;69.21;100073.53;5054516;28;20370;-83
2022/04/13 03:20:06;;;;;;;16.50;4.68;;;;;;;15.78;69.02;100082.47;5053064;28;20029;-83
2022/04/13 03:22:31;;;;;;;10.50;4.22;;;;;;;15.80;69.22;100088.44;5054109;28;20059;-83
2022/04/13 03:25:00;;;;;;;13.32;4.53;;;;;;;15.84;69.12;100087.19;5054189;28;20098;-83
2022/04/13 03:27:25;;;;;;;8.68;3.92;;;;;;;15.87;68.89;100086.03;5054160;28;20051;-83
2022/04/13 03:29:51;;;;;;;10.90;4.53;;;;;;;15.81;69.03;100082.16;5053916;28;20064;-82
2022/04/13 03:32:16;;;;;;;7.35;4.13;;;;;;;15.86;69.00;100077.28;5053854;28;20383;-83
2022/04/13 03:34:41;;;;;;;9.30;3.97;;;;;;;15.84;68.85;100076.59;5054381;28;20029;-84
2022/04/13 03:37:07;;;;;;;7.20;3.80;;;;;;;15.87;68.80;100080.75;5060282;28;20470;-83
2022/04/13 03:39:32;;;;;;;13.02;4.28;;;;;;;15.84;68.86;100073.94;5062211;28;20056;-82
2022/04/13 03:41:57;;;;;;;12.73;4.20;;;;;;;15.85;68.86;100080.06;5063334;28;20021;-82
2022/04/13 03:44:23;;;;;;;11.30;4.07;;;;;;;15.88;68.80;100084.22;5060201;28;20021;-83
2022/04/13 03:46:48;;;;;;;8.52;3.40;;;;;;;15.90;68.97;100088.41;5056078;28;20036;-83
2022/04/13 03:49:14;;;;;;;9.23;3.70;;;;;;;15.91;68.65;100087.41;5058223;28;20043;-83
2022/04/13 03:51:40;;;;;;;10.88;4.03;;;;;;;15.90;68.75;100079.66;5058852;28;20029;-83
2022/04/13 03:54:05;;;;;;;11.27;3.85;;;;;;;15.92;68.51;100088.28;5062539;28;20017;-83
2022/04/13 03:56:30;;;;;;;16.50;5.13;;;;;;;15.80;68.66;100084.97;5063327;28;20027;-83
2022/04/13 03:59:00;;;;;;;14.02;4.45;;;;;;;15.81;68.70;100081.34;5060247;28;20071;-83
2022/04/13 04:01:26;;;;;;;14.18;4.85;;;;;;;15.83;68.75;100090.78;5058788;28;20100;-84
2022/04/13 04:03:52;;;;;;;10.25;3.95;;;;;;;15.70;69.24;100090.28;5061627;28;20031;-83
2022/04/13 04:06:18;;;;;;;12.20;4.20;;;;;;;15.69;69.13;100098.34;5059803;28;20048;-83
2022/04/13 04:08:43;;;;;;;10.90;3.88;;;;;;;15.69;69.00;100095.72;5060353;28;20021;-83
2022/04/13 04:11:08;;;;;;;12.30;3.80;;;;;;;15.64;68.98;100098.81;5061206;28;20047;-83
2022/04/13 04:13:34;;;;;;;9.45;3.95;;;;;;;15.65;68.96;100097.81;5060011;28;20051;-83
2022/04/13 04:16:00;;;;;;;13.18;3.72;;;;;;;15.79;68.31;100094.72;5062939;28;20035;-83
2022/04/13 04:18:26;;;;;;;11.52;3.80;;;;;;;15.85;68.19;100103.88;5062316;28;20422;-82
2022/04/13 04:20:51;;;;;;;8.73;3.55;;;;;;;15.84;68.01;100116.28;5061412;28;20048;-83
2022/04/13 04:23:17;;;;;;;9.15;3.17;;;;;;;15.70;68.54;100100.88;5058468;28;20472;-83
2022/04/13 04:25:42;;;;;;;8.50;3.03;;;;;;;15.74;68.86;100104.06;5055414;28;20025;-83
2022/04/13 04:28:10;;;;;;;10.30;3.20;;;;;;;15.75;68.73;100109.22;5060526;28;20429;-83
2022/04/13 04:30:39;;;;;;;10.88;3.42;;;;;;;15.74;68.93;100106.72;5062062;28;20053;-83
2022/04/13 04:33:05;;;;;;;10.32;3.22;;;;;;;15.54;69.27;100111.19;5061803;28;20044;-83
2022/04/13 04:35:32;;;;;;;12.70;3.60;;;;;;;15.47;69.78;100119.72;5059930;28;20032;-83
2022/04/13 04:37:58;;;;;;;13.48;3.45;;;;;;;15.50;69.70;100120.41;5058358;28;20032;-83
2022/04/13 04:40:23;;;;;;;10.55;3.38;;;;;;;15.50;69.62;100118.63;5056345;28;20387;-83
2022/04/13 04:42:49;;;;;;;10.50;4.07;;;;;;;15.51;69.81;100120.28;5055052;28;20078;-83
2022/04/13 04:45:19;;;;;;;8.55;3.58;;;;;;;15.51;69.72;100122.91;5053501;28;20108;-83
2022/04/13 04:47:44;;;;;;;8.50;3.13;;;;;;;15.71;68.99;100126.34;5053406;28;20032;-83
2022/04/13 04:50:10;;;;;;;9.00;3.28;;;;;;;15.75;68.91;100127.75;5053143;28;20471;-83
2022/04/13 04:52:41;;;;;;;11.60;3.70;;;;;;;15.70;69.23;100127.34;5053129;28;20293;-83
2022/04/13 04:55:07;;;;;;;11.77;3.60;;;;;;;15.72;68.75;100135.09;5053300;28;20028;-83
2022/04/13 04:57:33;;;;;;;8.50;2.78;;;;;;;15.72;68.86;100135.09;5052890;28;20135;-83
2022/04/13 04:59:58;;;;;;;12.57;3.22;;;;;;;15.72;68.42;100135.97;5052916;28;20478;-84
2022/04/13 05:02:23;;;;;;;11.63;3.97;;;;;;;15.71;68.88;100138.75;5053044;28;20490;-83
2022/04/13 05:04:49;;;;;;;11.23;2.78;;;;;;;15.72;68.68;100146.56;5053055;28;20036;-83
2022/04/13 05:07:14;;;;;;;10.10;3.30;;;;;;;15.70;68.76;100153.81;5053079;28;20029;-83
2022/04/13 05:09:39;;;;;;;12.93;3.33;;;;;;;15.65;69.02;100156.03;5052957;28;20465;-84
2022/04/13 05:12:05;;;;;;;8.65;3.30;;;;;;;15.67;69.20;100164.66;5051597;28;20467;-84
2022/04/13 05:14:30;;;;;;;11.05;3.78;;;;;;;15.67;68.81;100167.31;5052728;28;20104;-84
2022/04/13 05:16:56;;;;;;;13.57;4.03;;;;;;;15.66;68.93;100168.31;5052600;28;20383;-84
2022/04/13 05:19:21;;;;;;;10.02;4.03;;;;;;;15.57;69.32;100174.44;5052599;28;20048;-84
2022/04/13 05:21:46;;;;;;;10.43;3.75;;;;;;;15.66;69.21;100178.88;5052615;28;20083;-84
2022/04/13 05:24:12;;;;;;;13.65;4.07;;;;;;;15.59;69.20;100178.59;5052517;28;20032;-83
2022/04/13 05:26:38;;;;;;;7.35;3.65;;;;;;;15.65;69.18;100183.31;5052387;28;20051;-83
2022/04/13 05:29:04;;;;;;;13.60;4.00;;;;;;;15.64;69.52;100180.84;5052351;28;20055;-83
2022/04/13 05:31:29;;;;;;;14.27;4.65;;;;;;;15.69;69.20;100186.53;5052194;28;20067;-83
2022/04/13 05:33:55;;;;;;;13.38;4.60;;;;;;;15.68;69.02;100187.53;5052030;28;20401;-83
2022/04/13 05:36:21;;;;;;;8.98;3.92;;;;;;;15.73;68.94;100197.69;5050715;28;20052;-83
2022/04/13 05:38:46;;;;;;;11.85;4.50;;;;;;;15.69;69.33;100199.75;5052378;28;20114;-83
2022/04/13 05:41:12;;;;;;;12.45;4.55;;;;;;;15.75;69.06;100204.50;5050622;28;20056;-84
2022/04/13 05:43:37;;;;;;;17.35;5.43;;;;;;;15.57;69.59;100200.91;5050778;28;20048;-84
2022/04/13 05:46:03;;;;;;;18.55;5.18;;;;;;;15.45;70.31;100202.88;5052074;28;20075;-83
2022/04/13 05:48:28;;;;;;;14.25;6.35;;;;;;;15.50;70.08;100202.44;5051837;28;20025;-83
2022/04/13 05:50:54;;;;;;;14.40;5.82;;;;;;;15.67;69.96;100212.31;5051513;28;20020;-83
2022/04/13 05:53:19;;;;;;;24.85;6.13;;;;;;;15.70;69.76;100216.47;5051984;28;20033;-83
2022/04/13 05:55:45;;;;;;;21.77;6.22;;;;;;;15.68;69.70;100213.97;5050633;28;20479;-83
2022/04/13 05:58:11;;;;;;;12.40;5.30;;;;;;;15.62;70.18;100222.47;5051769;28;20075;-84
2022/04/13 06:00:39;;;;;;;16.42;5.65;;;;;;;15.68;70.24;100227.22;5051810;28;20048;-84
2022/04/13 06:03:04;;;;;;;11.95;5.32;;;;;;;15.73;69.74;100234.75;5052168;28;20036;-83
2022/04/13 06:05:30;;;;;;;11.40;5.45;;;;;;;15.77;69.70;100236.13;5051762;28;20104;-84
2022/04/13 06:07:55;;;;;;;19.20;6.00;;;;;;;15.75;70.00;100236.28;5051607;28;20109;-84
2022/04/13 06:10:21;;;;;;;13.52;5.00;;;;;;;15.77;69.99;100233.50;5052133;28;20032;-84
2022/04/13 06:12:48;;;;;;;17.15;5.53;;;;;;;15.75;70.15;100238.91;5051639;28;20478;-84
2022/04/13 06:15:14;;;;;;;11.63;4.55;;;;;;;15.77;70.03;100239.63;5051667;28;20032;-83
2022/04/13 06:17:40;;;;;;;12.32;4.78;;;;;;;15.78;70.49;100243.13;5052205;28;20033;-83
2022/04/13 06:20:06;;;;;;;11.35;4.40;;;;;;;15.85;70.32;100239.72;5055536;28;20032;-83
2022/04/13 06:22:36;;;;;;;8.60;4.03;;;;;;;16.00;70.24;100244.59;5055546;28;20033;-84
2022/04/13 06:25:02;;;;;;;12.18;4.53;;;;;;;16.12;70.15;100248.75;5051536;28;20025;-84
2022/04/13 06:27:28;;;;;;;11.45;5.35;;;;;;;16.16;69.96;100249.28;5051523;28;20028;-84
2022/04/13 06:29:53;;;;;;;17.48;4.72;;;;;;;16.28;69.62;100253.44;5051330;28;20033;-84
2022/04/13 06:32:19;;;;;;;11.98;4.53;;;;;;;16.35;69.82;100262.47;5051510;28;20040;-84
2022/04/13 06:34:44;;;;;;;18.83;5.70;;;;;;;16.39;69.39;100263.84;5051403;28;20472;-84
2022/04/13 06:37:09;;;;;;;10.38;4.38;;;;;;;16.42;69.21;100270.66;5051572;28;20032;-84
2022/04/13 06:39:35;;;;;;;10.32;4.47;;;;;;;16.19;69.95;100271.03;5051684;28;20022;-83
2022/04/13 06:42:00;;;;;;;16.98;5.63;;;;;;;16.13;70.19;100284.00;5051023;28;20049;-84
2022/04/13 06:44:27;;;;;;;14.05;5.20;;;;;;;16.11;69.98;100281.50;5051483;28;20021;-83
2022/04/13 06:46:53;;;;;;;17.30;5.90;;;;;;;16.08;69.94;100291.56;5055210;28;20021;-84
2022/04/13 06:49:18;;;;;;;15.05;5.32;;;;;;;16.25;69.97;100285.50;5054961;28;20029;-84
2022/04/13 06:51:43;;;;;;;13.23;4.90;;;;;;;16.36;68.68;100287.97;5054772;28;20044;-84
2022/04/13 06:54:09;;;;;;;16.60;5.20;;;;;;;16.41;69.15;100300.78;5054736;28;20428;-84
2022/04/13 06:56:34;;;;;;;10.18;4.30;;;;;;;16.46;69.06;100303.84;5054850;28;20075;-84
2022/04/13 06:58:59;;;;;;;16.30;5.45;;;;;;;16.45;68.63;100307.50;5053632;28;20039;-84
2022/04/13 07:01:25;;;;;;;12.73;4.32;;;;;;;16.51;68.96;100316.66;5054737;28;20720;-84
2022/04/13 07:03:50;;;;;;;8.27;3.78;;;;;;;16.56;69.04;100325.03;5054648;28;20035;-84
2022/04/13 07:06:16;;;;;;;7.00;3.42;;;;;;;16.59;68.85;100322.91;5054674;28;20025;-84
2022/04/13 07:08:41;;;;;;;8.02;3.40;;;;;;;16.63;69.15;100331.44;5054744;28;20025;-83
2022/04/13 07:11:07;;;;;;;18.92;4.50;;;;;;;16.65;68.97;100324.16;5054439;28;20029;-83
2022/04/13 07:13:32;;;;;;;12.90;5.25;;;;;;;16.63;69.20;100331.44;5054428;28;20040;-85
2022/04/13 07:15:58;;;;;;;11.07;3.80;;;;;;;16.76;69.32;100331.06;5053209;28;20526;-83
2022/04/13 07:18:23;;;;;;;8.73;4.00;;;;;;;16.86;69.07;100331.91;5054792;28;20528;-84
2022/04/13 07:20:48;;;;;;;10.98;4.70;;;;;;;16.88;68.67;100337.88;5054489;28;20033;-83
2022/04/13 07:23:14;;;;;;;14.43;5.05;;;;;;;16.83;68.71;100337.50;5054411;28;20031;-83
2022/04/13 07:25:39;;;;;;;11.80;4.40;;;;;;;16.91;68.68;100339.44;5054465;28;20529;-82
2022/04/13 07:28:05;;;;;;;15.35;4.75;;;;;;;16.94;68.43;100350.59;5054378;28;20426;-83
2022/04/13 07:30:31;;;;;;;9.75;3.50;;;;;;;16.94;68.38;100353.25;5054400;28;20094;-83
2022/04/13 07:33:01;;;;;;;10.15;4.22;;;;;;;16.90;68.56;100359.78;5054216;28;20397;-83
2022/04/13 07:35:28;;;;;;;12.40;4.00;;;;;;;16.80;68.24;100353.66;5054570;28;20029;-83
2022/04/13 07:37:54;;;;;;;14.50;4.50;;;;;;;16.88;68.48;100360.94;5052981;28;20056;-83
2022/04/13 07:40:20;;;;;;;14.10;4.88;;;;;;;16.79;68.58;100363.44;5054105;28;20083;-83
2022/04/13 07:42:45;;;;;;;12.02;4.07;;;;;;;16.82;68.41;100367.66;5052735;28;20063;-83
2022/04/13 07:45:11;;;;;;;9.77;3.60;;;;;;;16.86;68.36;100369.03;5053977;28;20025;-83
2022/04/13 07:47:37;;;;;;;8.52;3.67;;;;;;;16.91;68.17;100371.25;5053878;28;20475;-83
2022/04/13 07:50:03;;;;;;;16.73;3.97;;;;;;;16.91;68.33;100377.38;5053832;28;20096;-84
2022/04/13 07:52:33;;;;;;;15.32;6.13;;;;;;;16.83;68.49;100375.47;5053881;28;20029;-83
2022/04/13 07:54:59;;;;;;;13.50;4.25;;;;;;;16.89;68.28;100376.69;5053967;28;20499;-84
2022/04/13 07:57:24;;;;;;;10.80;3.88;;;;;;;16.98;68.40;100381.13;5053310;28;20049;-84
2022/04/13 07:59:49;;;;;;;12.27;4.03;;;;;;;17.07;68.35;100389.19;5053792;28;20029;-84
2022/04/13 08:02:19;;;;;;;16.45;4.80;;;;;;;17.06;68.07;100396.28;5056029;28;20009;-85
2022/04/13 08:04:44;;;;;;;13.02;4.35;;;;;;;17.16;68.47;100396.25;5053653;28;20061;-85
2022/04/13 08:07:09;;;;;;;6.03;3.20;;;;;;;17.28;68.41;100399.53;5053617;28;20048;-84
2022/04/13 08:09:37;;;;;;;16.88;4.85;;;;;;;17.33;68.23;100399.94;5053466;28;20067;-84
2022/04/13 08:12:03;;;;;;;20.42;4.97;;;;;;;17.25;68.09;100406.00;5053155;28;20087;-84
2022/04/13 08:14:28;;;;;;;19.15;5.60;;;;;;;17.39;68.09;100409.97;5052278;28;20437;-84
2022/04/13 08:16:53;;;;;;;13.60;4.72;;;;;;;17.58;67.75;100411.69;5052243;28;20082;-84
2022/04/13 08:19:19;;;;;;;13.55;5.05;;;;;;;17.69;67.41;100418.59;5053439;28;20032;-84
2022/04/13 08:21:44;;;;;;;14.63;4.70;;;;;;;17.81;67.29;100417.38;5053165;28;20025;-84
2022/04/13 08:24:09;;;;;;;19.85;5.00;;;;;;;17.81;67.02;100418.22;5053264;28;20083;-84
2022/04/13 08:26:35;;;;;;;13.13;4.60;;;;;;;17.77;66.51;100422.19;5053328;28;20025;-84
2022/04/13 08:29:01;;;;;;;12.93;4.63;;;;;;;18.34;66.22;100413.88;5052992;28;20364;-84
2022/04/13 08:31:26;;;;;;;13.50;4.15;;;;;;;18.63;63.90;100416.25;5052934;28;20071;-84
2022/04/13 08:33:51;;;;;;;12.48;3.50;;;;;;;18.58;63.83;100423.03;5053178;28;20021;-84
2022/04/13 08:36:17;;;;;;;12.25;3.60;;;;;;;18.51;63.32;100425.47;5052986;28;20459;-83
2022/04/13 08:38:43;;;;;;;10.63;3.28;;;;;;;18.71;63.95;100425.28;5052961;28;20029;-83
2022/04/13 08:41:15;;;;;;;13.32;3.60;;;;;;;18.83;63.73;100438.19;5052802;28;20437;-84
2022/04/13 08:43:45;;;;;;;9.45;2.60;;;;;;;18.73;63.76;100437.44;5052737;28;20127;-84
2022/04/13 08:46:21;;;;;;;15.52;3.40;;;;;;;18.85;63.17;100434.53;5052796;28;20473;-84
2022/04/13 08:48:50;;;;;;;10.50;2.80;;;;;;;18.84;62.42;100447.03;5052799;28;20040;-84
2022/04/13 08:51:17;;;;;;;10.05;3.45;;;;;;;18.70;62.59;100448.41;5051415;28;20017;-84
2022/04/13 08:53:50;;;;;;;12.57;3.00;;;;;;;18.49;62.91;100442.59;5051531;28;20033;-84
2022/04/13 08:56:18;;;;;;;9.95;3.17;;;;;;;18.58;63.04;100453.13;5051434;28;20364;-82
2022/04/13 08:59:12;;;;;;;13.73;3.08;;;;;;;18.47;62.76;100455.22;5052960;28;20028;-83
2022/04/13 09:02:07;;;;;;;11.07;2.78;;;;;;;18.63;62.74;100456.16;5052412;28;20020;-83
2022/04/13 09:04:36;;;;;;;13.00;2.80;;;;;;;19.26;62.08;100456.88;5051445;28;20037;-83
2022/04/13 09:07:03;;;;;;;10.05;2.50;;;;;;;20.06;61.59;100467.13;5052547;28;20028;-83
2022/04/13 09:09:39;;;;;;;12.52;2.92;;;;;;;20.52;59.51;100459.50;5051959;28;20017;-83
2022/04/13 09:12:07;;;;;;;9.10;2.58;;;;;;;21.16;56.57;100467.56;5052321;28;20029;-84
2022/04/13 09:14:35;;;;;;;11.05;2.83;;;;;;;21.02;56.95;100465.59;5052399;28;20029;-83
2022/04/13 09:17:02;;;;;;;12.13;2.78;;;;;;;21.07;56.13;100465.94;5052333;28;20032;-84
2022/04/13 09:19:27;;;;;;;13.70;3.03;;;;;;;21.10;56.49;100478.91;5052337;28;20025;-84
2022/04/13 09:21:55;;;;;;;9.77;2.88;;;;;;;20.99;56.28;100474.78;5052048;28;20021;-84
2022/04/13 09:24:22;;;;;;;7.55;2.00;;;;;;;21.21;56.40;100480.41;5051949;28;20049;-84
2022/04/13 09:26:48;;;;;;;13.10;4.32;;;;;;;21.48;54.88;100486.34;5051982;28;20021;-83
2022/04/13 09:29:13;;;;;;;8.05;3.28;;;;;;;21.12;56.15;100492.09;5051904;28;20087;-84
2022/04/13 09:31:39;;;;;;;11.35;2.92;;;;;;;20.93;56.72;100488.81;5051841;28;20478;-84
2022/04/13 09:34:04;;;;;;;10.18;2.28;;;;;;;21.35;55.27;100487.69;5051953;28;20033;-84
2022/04/13 09:36:30;;;;;;;13.73;2.72;;;;;;;21.24;54.93;100489.91;5052319;28;20025;-84
2022/04/13 09:38:56;;;;;;;9.35;2.60;;;;;;;21.46;55.40;100485.69;5051950;28;20061;-83
2022/04/13 09:41:36;;;;;;;11.02;2.28;;;;;;;21.33;55.36;100486.22;5051814;28;20029;-84
2022/04/13 09:44:02;;;;;;;10.30;2.10;;;;;;;21.66;54.18;100483.41;5051992;28;20029;-84
2022/04/13 09:46:31;;;;;;;7.88;2.53;;;;;;;21.61;53.99;100486.63;5050558;28;20083;-84
2022/04/13 09:49:14;;;;;;;12.65;2.70;;;;;;;21.33;55.67;100500.38;5050570;28;20029;-84
2022/04/13 09:51:41;;;;;;;14.77;2.55;;;;;;;21.29;55.84;100507.06;5051701;28;20036;-84
2022/04/13 09:54:11;;;;;;;10.27;2.10;;;;;;;21.00;56.44;100508.47;5050532;28;20044;-84
2022/04/13 09:56:38;;;;;;;10.95;2.05;;;;;;;21.37;54.55;100504.38;5051577;28;20036;-84
2022/04/13 09:59:05;;;;;;;6.65;1.88;;;;;;;21.36;55.31;100504.53;5051829;28;20071;-84
2022/04/13 10:01:37;;;;;;;12.10;2.65;;;;;;;21.24;54.70;100506.75;5051767;28;20044;-84
2022/04/13 10:04:03;;;;;;;10.13;2.47;;;;;;;21.26;54.37;100507.41;5051773;28;20029;-84
2022/04/13 10:06:30;;;;;;;8.88;1.73;;;;;;;21.24;55.36;100512.09;5051762;28;20029;-84
2022/04/13 10:09:00;;;;;;;7.75;1.88;;;;;;;21.35;54.86;100514.41;5051760;28;20404;-85
2022/04/13 10:11:26;;;;;;;6.18;2.05;;;;;;;21.31;55.23;100515.75;5051463;28;20419;-85
2022/04/13 10:13:51;;;;;;;6.90;1.73;;;;;;;21.31;55.11;100518.44;5051655;28;20021;-84
2022/04/13 10:16:17;;;;;;;13.25;4.63;;;;;;;20.74;56.02;100516.69;5050349;28;20044;-84
2022/04/13 10:18:53;;;;;;;10.70;3.13;;;;;;;20.52;56.65;100520.84;5051712;28;20032;-83
2022/04/13 10:21:54;;;;;;;9.18;2.35;;;;;;;20.83;55.02;100519.34;5054809;28;20031;-84
2022/04/13 10:24:33;;;;;;;8.82;1.77;;;;;;;20.63;54.72;100521.53;5036562;28;20390;-82
2022/04/13 10:27:05;;;;;;;5.20;1.30;;;;;;;20.80;54.67;100525.88;5055289;28;20120;-84
2022/04/13 10:29:33;;;;;;;9.90;2.70;;;;;;;20.87;54.53;100516.16;5055621;28;20063;-83
2022/04/13 10:32:07;;;;;;;9.23;2.10;;;;;;;20.87;54.50;100526.00;5055250;28;20028;-84
2022/04/13 10:34:37;;;;;;;11.23;1.98;;;;;;;21.02;54.34;100531.50;5055232;28;20029;-85
2022/04/13 10:37:05;;;;;;;10.15;1.95;;;;;;;21.23;54.35;100531.81;5055355;28;20052;-84
2022/04/13 10:39:31;;;;;;;7.13;1.90;;;;;;;21.26;55.92;100542.13;5055510;28;20051;-84
2022/04/13 10:41:57;;;;;;;7.63;1.60;;;;;;;21.45;55.01;100535.59;5055086;28;20029;-85
2022/04/13 10:44:31;;;;;;;14.80;2.92;;;;;;;21.34;53.38;100542.09;5053840;28;20112;-84
2022/04/13 10:47:03;;;;;;;8.55;1.38;;;;;;;21.16;54.58;100546.81;5054890;28;20036;-84
2022/04/13 10:49:30;;;;;;;;;;;;;;;21.23;53.60;100546.97;5055481;28;20606;-84
2022/04/13 10:52:02;;;;;;;9.82;2.53;;;;;;;21.30;54.64;100548.78;5055033;28;19975;-84
2022/04/13 10:54:31;;;;;;;;;;;;;;;21.49;53.66;100536.09;5055402;28;20577;-84
2022/04/13 10:56:57;;;;;;;8.52;1.70;;;;;;;21.20;53.66;100537.47;5054943;28;19928;-84
2022/04/13 10:59:30;;;;;;;6.53;1.75;;;;;;;21.21;53.54;100544.50;5053930;28;20119;-84
2022/04/13 11:02:17;;;;;;;10.05;1.92;;;;;;;21.01;53.30;100541.38;5054808;28;20057;-85
2022/04/13 11:04:44;;;;;;;9.13;1.75;;;;;;;20.72;54.26;100537.38;5054929;28;20143;-85
2022/04/13 11:07:10;;;;;;;8.10;1.75;;;;;;;20.81;54.22;100532.84;5054670;28;20118;-85
2022/04/13 11:09:42;;;;;;;11.55;2.22;;;;;;;20.65;54.00;100543.53;5054536;28;20549;-85
2022/04/13 11:12:08;;;;;;;10.73;2.20;;;;;;;20.76;53.79;100540.53;5053326;28;20032;-84
2022/04/13 11:14:47;;;;;;;9.98;1.90;;;;;;;20.59;53.67;100532.53;5054620;28;20017;-84
2022/04/13 11:17:13;;;;;;;10.57;1.77;;;;;;;20.65;54.29;100530.19;5054491;28;20024;-85